UPS391 MROC-KMIA
Flight info
| Callsign | UPS391 |
|---|---|
| Flight time | 2h 26m |
| Altitude | 34000 |
| Route | NANJO4R RADON UB767 PZA UZ751 SELEK UL345 ELIBU/N0459F360 UL345 IKBIX SNDBR3 |
| Aircraft | B752/M-SDE2E3FGHIJ3J4J7RWXY/LB1 |
Departure
| Time | 2026-05-07 22:18 |
|---|---|
| Airport | Juan Santamaría International Airport (MROC) |
Arrival
| Time | 2026-05-08 00:45 |
|---|---|
| Airport | Miami International Airport (KMIA) |
| Time | Latitude | Longitude | Altitude | Speed | Heading |
|---|---|---|---|---|---|
| 2026-05-07 21:51 | 9.99654 | -84.20990 | 3031 ft | 0 kts | 339° |
| 2026-05-07 22:06 | 9.99644 | -84.20987 | 3031 ft | 2 kts | 340° |
| 2026-05-07 22:06 | 9.99629 | -84.20981 | 3031 ft | 2 kts | 341° |
| 2026-05-07 22:06 | 9.99613 | -84.20976 | 3031 ft | 2 kts | 343° |
| 2026-05-07 22:07 | 9.99597 | -84.20972 | 3031 ft | 2 kts | 349° |
| 2026-05-07 22:07 | 9.99582 | -84.20970 | 3031 ft | 2 kts | 3° |
| 2026-05-07 22:07 | 9.99569 | -84.20973 | 3031 ft | 2 kts | 34° |
| 2026-05-07 22:07 | 9.99566 | -84.20976 | 3031 ft | 2 kts | 88° |
| 2026-05-07 22:08 | 9.99566 | -84.20974 | 3031 ft | 2 kts | 129° |
| 2026-05-07 22:08 | 9.99575 | -84.20985 | 3031 ft | 2 kts | 129° |
| 2026-05-07 22:08 | 9.99585 | -84.20997 | 3031 ft | 2 kts | 129° |
| 2026-05-07 22:08 | 9.99588 | -84.21001 | 3031 ft | 0 kts | 129° |
| 2026-05-07 22:09 | 9.99587 | -84.21001 | 3031 ft | 0 kts | 129° |
| 2026-05-07 22:09 | 9.99587 | -84.21000 | 3031 ft | 0 kts | 129° |
| 2026-05-07 22:12 | 9.99570 | -84.20978 | 3031 ft | 8 kts | 124° |
| 2026-05-07 22:13 | 9.99533 | -84.20944 | 3031 ft | 7 kts | 158° |
| 2026-05-07 22:13 | 9.99492 | -84.20918 | 3031 ft | 7 kts | 125° |
| 2026-05-07 22:13 | 9.99490 | -84.20878 | 3031 ft | 6 kts | 77° |
| 2026-05-07 22:13 | 9.99506 | -84.20839 | 3031 ft | 6 kts | 69° |
| 2026-05-07 22:14 | 9.99514 | -84.20817 | 3031 ft | 10 kts | 69° |
| 2026-05-07 22:14 | 9.99519 | -84.20804 | 3031 ft | 13 kts | 69° |
| 2026-05-07 22:14 | 9.99558 | -84.20699 | 3031 ft | 17 kts | 69° |
| 2026-05-07 22:14 | 9.99600 | -84.20584 | 3031 ft | 18 kts | 70° |
| 2026-05-07 22:15 | 9.99631 | -84.20463 | 3031 ft | 17 kts | 111° |
| 2026-05-07 22:15 | 9.99556 | -84.20386 | 3031 ft | 18 kts | 115° |
| 2026-05-07 22:15 | 9.99548 | -84.20238 | 3031 ft | 23 kts | 91° |
| 2026-05-07 22:15 | 9.99543 | -84.20074 | 3031 ft | 24 kts | 92° |
| 2026-05-07 22:16 | 9.99581 | -84.19917 | 3031 ft | 20 kts | 69° |
| 2026-05-07 22:16 | 9.99619 | -84.19814 | 3031 ft | 15 kts | 69° |
| 2026-05-07 22:16 | 9.99659 | -84.19707 | 3031 ft | 17 kts | 69° |
| 2026-05-07 22:16 | 9.99700 | -84.19595 | 3031 ft | 18 kts | 69° |
| 2026-05-07 22:17 | 9.99743 | -84.19518 | 3031 ft | 5 kts | 355° |
| 2026-05-07 22:17 | 9.99792 | -84.19538 | 3031 ft | 10 kts | 341° |
| 2026-05-07 22:17 | 9.99859 | -84.19566 | 3031 ft | 11 kts | 323° |
| 2026-05-07 22:17 | 9.99834 | -84.19702 | 3031 ft | 48 kts | 250° |
| 2026-05-07 22:18 | 9.99604 | -84.20310 | 3031 ft | 136 kts | 249° |
| 2026-05-07 22:18 | 9.98650 | -84.22931 | 3770 ft | 245 kts | 250° |
| 2026-05-07 22:18 | 9.98399 | -84.24713 | 4889 ft | 263 kts | 276° |
| 2026-05-07 22:19 | 9.99010 | -84.26431 | 6315 ft | 261 kts | 303° |
| 2026-05-07 22:19 | 10.00302 | -84.27657 | 7714 ft | 251 kts | 328° |
| 2026-05-07 22:19 | 10.01819 | -84.28458 | 9030 ft | 243 kts | 335° |
| 2026-05-07 22:19 | 10.03294 | -84.29218 | 10119 ft | 240 kts | 333° |
| 2026-05-07 22:20 | 10.04725 | -84.30097 | 11116 ft | 239 kts | 328° |
| 2026-05-07 22:20 | 10.06085 | -84.31108 | 12033 ft | 238 kts | 323° |
| 2026-05-07 22:20 | 10.07329 | -84.32183 | 12837 ft | 240 kts | 320° |
| 2026-05-07 22:20 | 10.08561 | -84.33361 | 13611 ft | 242 kts | 319° |
| 2026-05-07 22:21 | 10.09955 | -84.34290 | 14262 ft | 243 kts | 344° |
| 2026-05-07 22:21 | 10.11630 | -84.34450 | 14949 ft | 240 kts | 9° |
| 2026-05-07 22:21 | 10.13261 | -84.34107 | 15673 ft | 240 kts | 20° |
| 2026-05-07 22:21 | 10.14842 | -84.33552 | 16345 ft | 244 kts | 25° |
| 2026-05-07 22:22 | 10.16426 | -84.32889 | 16938 ft | 250 kts | 27° |
| 2026-05-07 22:22 | 10.18077 | -84.32152 | 17502 ft | 259 kts | 28° |
| 2026-05-07 22:22 | 10.19726 | -84.31408 | 18050 ft | 268 kts | 27° |
| 2026-05-07 22:22 | 10.21487 | -84.30625 | 18623 ft | 276 kts | 27° |
| 2026-05-07 22:23 | 10.23249 | -84.29844 | 19147 ft | 284 kts | 27° |
| 2026-05-07 22:23 | 10.25078 | -84.29033 | 19672 ft | 292 kts | 27° |
| 2026-05-07 22:23 | 10.26993 | -84.28163 | 20209 ft | 300 kts | 28° |
| 2026-05-07 22:23 | 10.28881 | -84.27281 | 20763 ft | 305 kts | 28° |
| 2026-05-07 22:24 | 10.30800 | -84.26363 | 21463 ft | 305 kts | 29° |
| 2026-05-07 22:24 | 10.32719 | -84.25438 | 22261 ft | 301 kts | 29° |
| 2026-05-07 22:24 | 10.34609 | -84.24510 | 22993 ft | 299 kts | 30° |
| 2026-05-07 22:24 | 10.36470 | -84.23585 | 23673 ft | 297 kts | 30° |
| 2026-05-07 22:25 | 10.38293 | -84.22676 | 24317 ft | 295 kts | 30° |
| 2026-05-07 22:25 | 10.40144 | -84.21764 | 24942 ft | 295 kts | 30° |
| 2026-05-07 22:25 | 10.42016 | -84.20846 | 25513 ft | 296 kts | 30° |
| 2026-05-07 22:25 | 10.43836 | -84.19951 | 26052 ft | 296 kts | 30° |
| 2026-05-07 22:26 | 10.45698 | -84.19037 | 26587 ft | 297 kts | 30° |
| 2026-05-07 22:26 | 10.47553 | -84.18125 | 27093 ft | 297 kts | 30° |
| 2026-05-07 22:26 | 10.49407 | -84.17215 | 27576 ft | 298 kts | 29° |
| 2026-05-07 22:26 | 10.51220 | -84.16321 | 28032 ft | 298 kts | 30° |
| 2026-05-07 22:27 | 10.53089 | -84.15403 | 28481 ft | 299 kts | 29° |
| 2026-05-07 22:27 | 10.54940 | -84.14491 | 28909 ft | 299 kts | 29° |
| 2026-05-07 22:27 | 10.56847 | -84.13553 | 29333 ft | 299 kts | 29° |
| 2026-05-07 22:27 | 10.58697 | -84.12643 | 29718 ft | 300 kts | 29° |
| 2026-05-07 22:28 | 10.60585 | -84.11711 | 30013 ft | 304 kts | 29° |
| 2026-05-07 22:28 | 10.62507 | -84.10765 | 30335 ft | 306 kts | 29° |
| 2026-05-07 22:28 | 10.64411 | -84.09829 | 30772 ft | 304 kts | 28° |
| 2026-05-07 22:28 | 10.66258 | -84.08914 | 31293 ft | 299 kts | 27° |
| 2026-05-07 22:29 | 10.68164 | -84.07993 | 31817 ft | 293 kts | 25° |
| 2026-05-07 22:29 | 10.70046 | -84.07230 | 32323 ft | 287 kts | 21° |
| 2026-05-07 22:29 | 10.71921 | -84.06609 | 32717 ft | 285 kts | 18° |
| 2026-05-07 22:29 | 10.73844 | -84.06074 | 33010 ft | 286 kts | 16° |
| 2026-05-07 22:30 | 10.75773 | -84.05601 | 33270 ft | 287 kts | 15° |
| 2026-05-07 22:30 | 10.77729 | -84.05155 | 33529 ft | 288 kts | 14° |
| 2026-05-07 22:30 | 10.79669 | -84.04722 | 33778 ft | 290 kts | 14° |
| 2026-05-07 22:30 | 10.81686 | -84.04271 | 33963 ft | 303 kts | 13° |
| 2026-05-07 22:31 | 10.83806 | -84.03803 | 34050 ft | 322 kts | 13° |
| 2026-05-07 22:31 | 10.86079 | -84.03293 | 34065 ft | 344 kts | 13° |
| 2026-05-07 22:31 | 10.88485 | -84.02738 | 34064 ft | 367 kts | 13° |
| 2026-05-07 22:31 | 10.91061 | -84.02154 | 34057 ft | 391 kts | 13° |
| 2026-05-07 22:32 | 10.93809 | -84.01520 | 34035 ft | 415 kts | 13° |
| 2026-05-07 22:32 | 10.96690 | -84.00864 | 34022 ft | 436 kts | 13° |
| 2026-05-07 22:32 | 10.99682 | -84.00182 | 34013 ft | 446 kts | 13° |
| 2026-05-07 22:33 | 11.05829 | -83.98795 | 34001 ft | 457 kts | 13° |
| 2026-05-07 22:33 | 11.12066 | -83.97365 | 33984 ft | 463 kts | 13° |
| 2026-05-07 22:34 | 11.18347 | -83.95911 | 33977 ft | 465 kts | 13° |
| 2026-05-07 22:34 | 11.24690 | -83.94459 | 33971 ft | 467 kts | 13° |
| 2026-05-07 22:35 | 11.31017 | -83.93005 | 33951 ft | 467 kts | 14° |
| 2026-05-07 22:35 | 11.37350 | -83.91537 | 33943 ft | 466 kts | 13° |
| 2026-05-07 22:36 | 11.43669 | -83.90094 | 33940 ft | 466 kts | 14° |
| 2026-05-07 22:36 | 11.49984 | -83.88639 | 33931 ft | 465 kts | 14° |
| 2026-05-07 22:37 | 11.56303 | -83.87184 | 33926 ft | 464 kts | 14° |
| 2026-05-07 22:37 | 11.62618 | -83.85732 | 33923 ft | 464 kts | 14° |
| 2026-05-07 22:38 | 11.68925 | -83.84285 | 33918 ft | 464 kts | 14° |
| 2026-05-07 22:38 | 11.75167 | -83.82858 | 33915 ft | 463 kts | 14° |
| 2026-05-07 22:39 | 11.80635 | -83.81611 | 33913 ft | 463 kts | 13° |
| 2026-05-07 22:39 | 11.86740 | -83.80221 | 33910 ft | 463 kts | 13° |
| 2026-05-07 22:40 | 11.92526 | -83.78890 | 33908 ft | 462 kts | 13° |
| 2026-05-07 22:40 | 11.98799 | -83.77461 | 33907 ft | 461 kts | 13° |
| 2026-05-07 22:41 | 12.05121 | -83.76185 | 33906 ft | 461 kts | 11° |
| 2026-05-07 22:41 | 12.11439 | -83.75041 | 33906 ft | 461 kts | 10° |
| 2026-05-07 22:42 | 12.17730 | -83.73900 | 33908 ft | 461 kts | 10° |
| 2026-05-07 22:42 | 12.24021 | -83.72753 | 33908 ft | 461 kts | 11° |
| 2026-05-07 22:43 | 12.30334 | -83.71570 | 33908 ft | 461 kts | 11° |
| 2026-05-07 22:43 | 12.36637 | -83.70407 | 33913 ft | 461 kts | 11° |
| 2026-05-07 22:44 | 12.42939 | -83.69214 | 33912 ft | 461 kts | 11° |
| 2026-05-07 22:44 | 12.49244 | -83.68042 | 33913 ft | 461 kts | 11° |
| 2026-05-07 22:45 | 12.55413 | -83.66894 | 33916 ft | 462 kts | 11° |
| 2026-05-07 22:45 | 12.61710 | -83.65692 | 33912 ft | 462 kts | 11° |
| 2026-05-07 22:46 | 12.68063 | -83.64520 | 33913 ft | 462 kts | 11° |
| 2026-05-07 22:46 | 12.74381 | -83.63336 | 33915 ft | 463 kts | 11° |
| 2026-05-07 22:47 | 12.79667 | -83.62336 | 33913 ft | 463 kts | 11° |
| 2026-05-07 22:47 | 12.86018 | -83.61160 | 33913 ft | 463 kts | 11° |
| 2026-05-07 22:48 | 12.92332 | -83.59966 | 33913 ft | 464 kts | 11° |
| 2026-05-07 22:48 | 12.98695 | -83.58775 | 33912 ft | 464 kts | 11° |
| 2026-05-07 22:49 | 13.05028 | -83.57592 | 33909 ft | 465 kts | 11° |
| 2026-05-07 22:49 | 13.11367 | -83.56393 | 33908 ft | 465 kts | 11° |
| 2026-05-07 22:50 | 13.17742 | -83.55202 | 33906 ft | 466 kts | 11° |
| 2026-05-07 22:50 | 13.24133 | -83.54014 | 33901 ft | 466 kts | 11° |
| 2026-05-07 22:51 | 13.30531 | -83.52799 | 33900 ft | 467 kts | 11° |
| 2026-05-07 22:51 | 13.36907 | -83.51607 | 33898 ft | 467 kts | 11° |
| 2026-05-07 22:52 | 13.43351 | -83.50410 | 33895 ft | 467 kts | 11° |
| 2026-05-07 22:52 | 13.49702 | -83.49204 | 33894 ft | 467 kts | 11° |
| 2026-05-07 22:53 | 13.55902 | -83.48036 | 33891 ft | 467 kts | 11° |
| 2026-05-07 22:53 | 13.62252 | -83.46859 | 33888 ft | 467 kts | 11° |
| 2026-05-07 22:54 | 13.68463 | -83.45676 | 33887 ft | 468 kts | 10° |
| 2026-05-07 22:54 | 13.74871 | -83.44479 | 33884 ft | 468 kts | 10° |
| 2026-05-07 22:55 | 13.81257 | -83.43269 | 33883 ft | 468 kts | 11° |
| 2026-05-07 22:55 | 13.87428 | -83.42101 | 33882 ft | 468 kts | 10° |
| 2026-05-07 22:56 | 13.93155 | -83.41030 | 33879 ft | 468 kts | 10° |
| 2026-05-07 22:56 | 13.99487 | -83.39825 | 33878 ft | 468 kts | 11° |
| 2026-05-07 22:57 | 14.05850 | -83.38653 | 33877 ft | 468 kts | 9° |
| 2026-05-07 22:57 | 14.12273 | -83.37614 | 33877 ft | 468 kts | 8° |
| 2026-05-07 22:58 | 14.18705 | -83.36651 | 33877 ft | 468 kts | 8° |
| 2026-05-07 22:58 | 14.25158 | -83.35661 | 33879 ft | 468 kts | 9° |
| 2026-05-07 22:59 | 14.31569 | -83.34672 | 33885 ft | 468 kts | 9° |
| 2026-05-07 22:59 | 14.38018 | -83.33670 | 33886 ft | 468 kts | 9° |
| 2026-05-07 23:00 | 14.44420 | -83.32654 | 33895 ft | 468 kts | 9° |
| 2026-05-07 23:00 | 14.50874 | -83.31628 | 33911 ft | 469 kts | 9° |
| 2026-05-07 23:01 | 14.57333 | -83.30634 | 33921 ft | 470 kts | 9° |
| 2026-05-07 23:01 | 14.63779 | -83.29631 | 33883 ft | 469 kts | 8° |
| 2026-05-07 23:02 | 14.70255 | -83.28600 | 33878 ft | 469 kts | 9° |
| 2026-05-07 23:02 | 14.76662 | -83.27592 | 33878 ft | 469 kts | 9° |
| 2026-05-07 23:03 | 14.83141 | -83.26564 | 33877 ft | 469 kts | 8° |
| 2026-05-07 23:03 | 14.89569 | -83.25532 | 33877 ft | 469 kts | 9° |
| 2026-05-07 23:04 | 14.96030 | -83.24517 | 33876 ft | 469 kts | 8° |
| 2026-05-07 23:04 | 15.02508 | -83.23516 | 33875 ft | 469 kts | 8° |
| 2026-05-07 23:05 | 15.08918 | -83.22504 | 33876 ft | 469 kts | 8° |
| 2026-05-07 23:05 | 15.15419 | -83.21483 | 33875 ft | 469 kts | 8° |
| 2026-05-07 23:06 | 15.21831 | -83.20474 | 33875 ft | 469 kts | 8° |
| 2026-05-07 23:06 | 15.28300 | -83.19463 | 33876 ft | 469 kts | 8° |
| 2026-05-07 23:07 | 15.34747 | -83.18460 | 33875 ft | 469 kts | 8° |
| 2026-05-07 23:07 | 15.41177 | -83.17455 | 33875 ft | 469 kts | 8° |
| 2026-05-07 23:08 | 15.47670 | -83.16439 | 33875 ft | 469 kts | 8° |
| 2026-05-07 23:08 | 15.54083 | -83.15423 | 33875 ft | 469 kts | 8° |
| 2026-05-07 23:09 | 15.60538 | -83.14403 | 33875 ft | 469 kts | 9° |
| 2026-05-07 23:09 | 15.66979 | -83.13381 | 33875 ft | 469 kts | 9° |
| 2026-05-07 23:10 | 15.73471 | -83.12352 | 33875 ft | 469 kts | 8° |
| 2026-05-07 23:10 | 15.79897 | -83.11332 | 33875 ft | 469 kts | 8° |
| 2026-05-07 23:11 | 15.86345 | -83.10305 | 33875 ft | 469 kts | 8° |
| 2026-05-07 23:11 | 15.92807 | -83.09279 | 33875 ft | 469 kts | 9° |
| 2026-05-07 23:12 | 15.99237 | -83.08259 | 33875 ft | 469 kts | 8° |
| 2026-05-07 23:12 | 16.05712 | -83.07226 | 33875 ft | 469 kts | 8° |
| 2026-05-07 23:13 | 16.12119 | -83.06207 | 33875 ft | 469 kts | 8° |
| 2026-05-07 23:13 | 16.18567 | -83.05179 | 33875 ft | 469 kts | 9° |
| 2026-05-07 23:14 | 16.25025 | -83.04150 | 33875 ft | 469 kts | 9° |
| 2026-05-07 23:14 | 16.31459 | -83.03123 | 33875 ft | 469 kts | 8° |
| 2026-05-07 23:15 | 16.37919 | -83.02090 | 33875 ft | 468 kts | 8° |
| 2026-05-07 23:15 | 16.44353 | -83.01062 | 33875 ft | 468 kts | 9° |
| 2026-05-07 23:16 | 16.50825 | -83.00030 | 33875 ft | 468 kts | 9° |
| 2026-05-07 23:16 | 16.57120 | -82.99021 | 33875 ft | 468 kts | 8° |
| 2026-05-07 23:17 | 16.63497 | -82.97995 | 33875 ft | 468 kts | 9° |
| 2026-05-07 23:17 | 16.69994 | -82.96964 | 33875 ft | 468 kts | 8° |
| 2026-05-07 23:18 | 16.76230 | -82.95957 | 33875 ft | 468 kts | 8° |
| 2026-05-07 23:18 | 16.82657 | -82.94929 | 33875 ft | 468 kts | 8° |
| 2026-05-07 23:19 | 16.89114 | -82.93893 | 33875 ft | 468 kts | 9° |
| 2026-05-07 23:19 | 16.95566 | -82.92856 | 33875 ft | 468 kts | 8° |
| 2026-05-07 23:20 | 17.01994 | -82.91820 | 33875 ft | 468 kts | 8° |
| 2026-05-07 23:20 | 17.08449 | -82.90783 | 33875 ft | 468 kts | 8° |
| 2026-05-07 23:21 | 17.14845 | -82.89752 | 33875 ft | 468 kts | 8° |
| 2026-05-07 23:21 | 17.21249 | -82.88721 | 33875 ft | 468 kts | 8° |
| 2026-05-07 23:22 | 17.27700 | -82.87678 | 33875 ft | 468 kts | 8° |
| 2026-05-07 23:22 | 17.34111 | -82.86644 | 33875 ft | 468 kts | 9° |
| 2026-05-07 23:23 | 17.40536 | -82.85609 | 33875 ft | 468 kts | 9° |
| 2026-05-07 23:23 | 17.46995 | -82.84567 | 33875 ft | 468 kts | 8° |
| 2026-05-07 23:24 | 17.53430 | -82.83519 | 33875 ft | 468 kts | 8° |
| 2026-05-07 23:24 | 17.59865 | -82.82482 | 33875 ft | 468 kts | 9° |
| 2026-05-07 23:25 | 17.66291 | -82.81444 | 33875 ft | 468 kts | 9° |
| 2026-05-07 23:25 | 17.72685 | -82.80401 | 33875 ft | 468 kts | 9° |
| 2026-05-07 23:26 | 17.79162 | -82.79358 | 33875 ft | 468 kts | 9° |
| 2026-05-07 23:26 | 17.85553 | -82.78314 | 33875 ft | 468 kts | 9° |
| 2026-05-07 23:27 | 17.95189 | -82.76752 | 33875 ft | 468 kts | 9° |
| 2026-05-07 23:27 | 18.01628 | -82.75703 | 33875 ft | 468 kts | 8° |
| 2026-05-07 23:28 | 18.08067 | -82.74660 | 33875 ft | 468 kts | 9° |
| 2026-05-07 23:28 | 18.14493 | -82.73613 | 33875 ft | 468 kts | 9° |
| 2026-05-07 23:29 | 18.20928 | -82.72563 | 33875 ft | 468 kts | 9° |
| 2026-05-07 23:29 | 18.27314 | -82.71523 | 33875 ft | 468 kts | 9° |
| 2026-05-07 23:30 | 18.33769 | -82.70473 | 33875 ft | 468 kts | 9° |
| 2026-05-07 23:30 | 18.40200 | -82.69428 | 33875 ft | 468 kts | 8° |
| 2026-05-07 23:31 | 18.46648 | -82.68383 | 33875 ft | 468 kts | 8° |
| 2026-05-07 23:31 | 18.53006 | -82.67354 | 33875 ft | 468 kts | 8° |
| 2026-05-07 23:32 | 18.59458 | -82.66312 | 33894 ft | 467 kts | 7° |
| 2026-05-07 23:32 | 18.65862 | -82.65262 | 33990 ft | 465 kts | 7° |
| 2026-05-07 23:33 | 18.72255 | -82.64211 | 33993 ft | 464 kts | 7° |
| 2026-05-07 23:33 | 18.77527 | -82.63349 | 33993 ft | 463 kts | 7° |
| 2026-05-07 23:34 | 18.83986 | -82.62287 | 33993 ft | 462 kts | 7° |
| 2026-05-07 23:34 | 18.90264 | -82.61257 | 33993 ft | 462 kts | 7° |
| 2026-05-07 23:35 | 18.96490 | -82.60243 | 33993 ft | 462 kts | 7° |
| 2026-05-07 23:35 | 19.02872 | -82.59192 | 33993 ft | 462 kts | 7° |
| 2026-05-07 23:36 | 19.09218 | -82.58133 | 33993 ft | 462 kts | 7° |
| 2026-05-07 23:36 | 19.14330 | -82.57285 | 33993 ft | 462 kts | 7° |
| 2026-05-07 23:37 | 19.20598 | -82.56270 | 33993 ft | 462 kts | 7° |
| 2026-05-07 23:37 | 19.26951 | -82.55230 | 33993 ft | 462 kts | 7° |
| 2026-05-07 23:38 | 19.33291 | -82.54187 | 33994 ft | 462 kts | 7° |
| 2026-05-07 23:38 | 19.39638 | -82.53139 | 33993 ft | 462 kts | 7° |
| 2026-05-07 23:39 | 19.46015 | -82.52082 | 33994 ft | 462 kts | 7° |
| 2026-05-07 23:39 | 19.52325 | -82.51042 | 33994 ft | 462 kts | 7° |
| 2026-05-07 23:40 | 19.58686 | -82.49992 | 33993 ft | 462 kts | 7° |
| 2026-05-07 23:40 | 19.65052 | -82.48952 | 33994 ft | 462 kts | 7° |
| 2026-05-07 23:41 | 19.71414 | -82.47928 | 33994 ft | 461 kts | 7° |
| 2026-05-07 23:41 | 19.77759 | -82.46876 | 33995 ft | 462 kts | 7° |
| 2026-05-07 23:42 | 19.84106 | -82.45801 | 33996 ft | 462 kts | 7° |
| 2026-05-07 23:42 | 19.90469 | -82.44758 | 33996 ft | 461 kts | 7° |
| 2026-05-07 23:43 | 19.96770 | -82.43701 | 33997 ft | 461 kts | 8° |
| 2026-05-07 23:43 | 20.03101 | -82.42630 | 33997 ft | 461 kts | 7° |
| 2026-05-07 23:44 | 20.09444 | -82.41527 | 33997 ft | 461 kts | 9° |
| 2026-05-07 23:44 | 20.15679 | -82.39936 | 33998 ft | 462 kts | 14° |
| 2026-05-07 23:45 | 20.21850 | -82.37956 | 33997 ft | 462 kts | 15° |
| 2026-05-07 23:45 | 20.28013 | -82.35958 | 33997 ft | 463 kts | 15° |
| 2026-05-07 23:46 | 20.34171 | -82.34052 | 33998 ft | 463 kts | 14° |
| 2026-05-07 23:46 | 20.40369 | -82.32182 | 33996 ft | 463 kts | 13° |
| 2026-05-07 23:47 | 20.46565 | -82.30346 | 33997 ft | 464 kts | 14° |
| 2026-05-07 23:47 | 20.52806 | -82.28459 | 33997 ft | 465 kts | 14° |
| 2026-05-07 23:48 | 20.59055 | -82.26595 | 33997 ft | 465 kts | 13° |
| 2026-05-07 23:48 | 20.65293 | -82.24738 | 33997 ft | 465 kts | 14° |
| 2026-05-07 23:49 | 20.71552 | -82.22862 | 33997 ft | 464 kts | 14° |
| 2026-05-07 23:49 | 20.77725 | -82.21009 | 33997 ft | 464 kts | 14° |
| 2026-05-07 23:50 | 20.80863 | -82.20057 | 33999 ft | 475 kts | 14° |
| 2026-05-07 23:50 | 20.84078 | -82.19082 | 34001 ft | 483 kts | 14° |
| 2026-05-07 23:50 | 20.90481 | -82.17147 | 33996 ft | 473 kts | 14° |
| 2026-05-07 23:51 | 20.96780 | -82.15271 | 33996 ft | 468 kts | 13° |
| 2026-05-07 23:51 | 21.03056 | -82.13391 | 33997 ft | 468 kts | 14° |
| 2026-05-07 23:52 | 21.09347 | -82.11487 | 33998 ft | 467 kts | 14° |
| 2026-05-07 23:52 | 21.15557 | -82.09632 | 33999 ft | 469 kts | 13° |
| 2026-05-07 23:53 | 21.21848 | -82.07753 | 34000 ft | 471 kts | 13° |
| 2026-05-07 23:53 | 21.28179 | -82.05812 | 33999 ft | 471 kts | 13° |
| 2026-05-07 23:54 | 21.34376 | -82.03953 | 33999 ft | 472 kts | 13° |
| 2026-05-07 23:54 | 21.40692 | -82.02049 | 33998 ft | 472 kts | 13° |
| 2026-05-07 23:55 | 21.46830 | -82.00168 | 33996 ft | 471 kts | 13° |
| 2026-05-07 23:55 | 21.53053 | -81.98282 | 33997 ft | 471 kts | 13° |
| 2026-05-07 23:56 | 21.59331 | -81.96372 | 33996 ft | 471 kts | 13° |
| 2026-05-07 23:56 | 21.65636 | -81.94455 | 33996 ft | 470 kts | 13° |
| 2026-05-07 23:57 | 21.71927 | -81.92559 | 33997 ft | 471 kts | 13° |
| 2026-05-07 23:57 | 21.78246 | -81.90626 | 33996 ft | 471 kts | 13° |
| 2026-05-07 23:58 | 21.84528 | -81.88704 | 33999 ft | 471 kts | 13° |
| 2026-05-07 23:58 | 21.90869 | -81.86772 | 34000 ft | 472 kts | 13° |
| 2026-05-07 23:59 | 21.97184 | -81.84839 | 34000 ft | 472 kts | 13° |
| 2026-05-07 23:59 | 22.03481 | -81.82907 | 34004 ft | 472 kts | 13° |
| 2026-05-08 00:00 | 22.09761 | -81.80994 | 34004 ft | 472 kts | 13° |
| 2026-05-08 00:00 | 22.16090 | -81.79058 | 34004 ft | 472 kts | 13° |
| 2026-05-08 00:01 | 22.22458 | -81.77108 | 34006 ft | 472 kts | 13° |
| 2026-05-08 00:01 | 22.28721 | -81.75195 | 34007 ft | 472 kts | 13° |
| 2026-05-08 00:02 | 22.35059 | -81.73269 | 34009 ft | 471 kts | 13° |
| 2026-05-08 00:02 | 22.41340 | -81.71363 | 34012 ft | 471 kts | 13° |
| 2026-05-08 00:03 | 22.47162 | -81.69604 | 34013 ft | 471 kts | 13° |
| 2026-05-08 00:03 | 22.53468 | -81.67727 | 34015 ft | 470 kts | 13° |
| 2026-05-08 00:04 | 22.59789 | -81.65841 | 34018 ft | 470 kts | 13° |
| 2026-05-08 00:04 | 22.66104 | -81.63955 | 34018 ft | 469 kts | 13° |
| 2026-05-08 00:05 | 22.72395 | -81.62078 | 34019 ft | 469 kts | 13° |
| 2026-05-08 00:05 | 22.78679 | -81.60206 | 34019 ft | 469 kts | 13° |
| 2026-05-08 00:06 | 22.84977 | -81.58334 | 34020 ft | 469 kts | 13° |
| 2026-05-08 00:06 | 22.91269 | -81.56439 | 34020 ft | 469 kts | 13° |
| 2026-05-08 00:07 | 22.97551 | -81.54536 | 34022 ft | 469 kts | 13° |
| 2026-05-08 00:07 | 23.02387 | -81.53080 | 34022 ft | 469 kts | 13° |
| 2026-05-08 00:08 | 23.08670 | -81.51181 | 34020 ft | 469 kts | 13° |
| 2026-05-08 00:08 | 23.14999 | -81.49276 | 34022 ft | 471 kts | 13° |
| 2026-05-08 00:09 | 23.21337 | -81.47365 | 34023 ft | 473 kts | 13° |
| 2026-05-08 00:09 | 23.27477 | -81.45515 | 34042 ft | 474 kts | 13° |
| 2026-05-08 00:10 | 23.30557 | -81.44588 | 34165 ft | 473 kts | 13° |
| 2026-05-08 00:10 | 23.33771 | -81.43615 | 34417 ft | 474 kts | 13° |
| 2026-05-08 00:10 | 23.36944 | -81.42638 | 34789 ft | 475 kts | 13° |
| 2026-05-08 00:10 | 23.40166 | -81.41655 | 35288 ft | 473 kts | 13° |
| 2026-05-08 00:11 | 23.43329 | -81.40697 | 35671 ft | 466 kts | 13° |
| 2026-05-08 00:11 | 23.46349 | -81.39783 | 35871 ft | 448 kts | 13° |
| 2026-05-08 00:11 | 23.49328 | -81.38880 | 35978 ft | 441 kts | 13° |
| 2026-05-08 00:11 | 23.52282 | -81.37985 | 36024 ft | 445 kts | 13° |
| 2026-05-08 00:12 | 23.58356 | -81.36150 | 36026 ft | 459 kts | 13° |
| 2026-05-08 00:12 | 23.64550 | -81.34244 | 36023 ft | 463 kts | 13° |
| 2026-05-08 00:13 | 23.70785 | -81.32352 | 36023 ft | 466 kts | 13° |
| 2026-05-08 00:13 | 23.77050 | -81.30419 | 36023 ft | 468 kts | 13° |
| 2026-05-08 00:14 | 23.83352 | -81.28507 | 36023 ft | 469 kts | 13° |
| 2026-05-08 00:14 | 23.89589 | -81.26594 | 36022 ft | 469 kts | 13° |
| 2026-05-08 00:15 | 23.95892 | -81.24662 | 36022 ft | 469 kts | 13° |
| 2026-05-08 00:15 | 24.02157 | -81.22955 | 36026 ft | 468 kts | 8° |
| 2026-05-08 00:16 | 24.07521 | -81.22030 | 36028 ft | 466 kts | 5° |
| 2026-05-08 00:16 | 24.11944 | -81.21494 | 35435 ft | 491 kts | 4° |
| 2026-05-08 00:16 | 24.15354 | -81.21111 | 34896 ft | 495 kts | 4° |
| 2026-05-08 00:17 | 24.17688 | -81.20837 | 34523 ft | 494 kts | 4° |
| 2026-05-08 00:17 | 24.22148 | -81.20261 | 33801 ft | 489 kts | 5° |
| 2026-05-08 00:17 | 24.25526 | -81.19776 | 33247 ft | 484 kts | 5° |
| 2026-05-08 00:17 | 24.28838 | -81.19276 | 32698 ft | 481 kts | 5° |
| 2026-05-08 00:18 | 24.31052 | -81.18937 | 32330 ft | 479 kts | 5° |
| 2026-05-08 00:18 | 24.34354 | -81.18447 | 31779 ft | 477 kts | 5° |
| 2026-05-08 00:18 | 24.37632 | -81.17971 | 31231 ft | 476 kts | 5° |
| 2026-05-08 00:18 | 24.40940 | -81.17497 | 30678 ft | 476 kts | 5° |
| 2026-05-08 00:19 | 24.44196 | -81.17034 | 30134 ft | 476 kts | 5° |
| 2026-05-08 00:19 | 24.47520 | -81.16564 | 29579 ft | 476 kts | 5° |
| 2026-05-08 00:19 | 24.50806 | -81.16098 | 29028 ft | 474 kts | 5° |
| 2026-05-08 00:19 | 24.54033 | -81.15617 | 28488 ft | 469 kts | 5° |
| 2026-05-08 00:20 | 24.57271 | -81.15134 | 27957 ft | 467 kts | 5° |
| 2026-05-08 00:20 | 24.60357 | -81.14709 | 27452 ft | 463 kts | 4° |
| 2026-05-08 00:20 | 24.63488 | -81.14327 | 26937 ft | 461 kts | 3° |
| 2026-05-08 00:20 | 24.66687 | -81.13972 | 26408 ft | 457 kts | 3° |
| 2026-05-08 00:21 | 24.69751 | -81.13649 | 25897 ft | 453 kts | 3° |
| 2026-05-08 00:21 | 24.72839 | -81.13334 | 25378 ft | 450 kts | 2° |
| 2026-05-08 00:21 | 24.75863 | -81.13031 | 24867 ft | 448 kts | 2° |
| 2026-05-08 00:21 | 24.78981 | -81.12721 | 24337 ft | 444 kts | 2° |
| 2026-05-08 00:22 | 24.82026 | -81.12421 | 24092 ft | 433 kts | 2° |
| 2026-05-08 00:22 | 24.84920 | -81.12039 | 24633 ft | 409 kts | 6° |
| 2026-05-08 00:22 | 24.87574 | -81.11395 | 25140 ft | 376 kts | 12° |
| 2026-05-08 00:22 | 24.89955 | -81.10503 | 25545 ft | 348 kts | 17° |
| 2026-05-08 00:23 | 24.92189 | -81.09452 | 25168 ft | 339 kts | 21° |
| 2026-05-08 00:23 | 24.94269 | -81.08352 | 24790 ft | 324 kts | 22° |
| 2026-05-08 00:23 | 24.96233 | -81.07285 | 24325 ft | 313 kts | 22° |
| 2026-05-08 00:23 | 24.98160 | -81.06253 | 23828 ft | 304 kts | 21° |
| 2026-05-08 00:24 | 25.00060 | -81.05268 | 23322 ft | 297 kts | 21° |
| 2026-05-08 00:24 | 25.01906 | -81.04327 | 22821 ft | 291 kts | 20° |
| 2026-05-08 00:24 | 25.03733 | -81.03419 | 22318 ft | 285 kts | 20° |
| 2026-05-08 00:24 | 25.05550 | -81.02530 | 21811 ft | 282 kts | 20° |
| 2026-05-08 00:25 | 25.07292 | -81.01665 | 21318 ft | 278 kts | 20° |
| 2026-05-08 00:25 | 25.09052 | -81.00788 | 20814 ft | 275 kts | 20° |
| 2026-05-08 00:25 | 25.10781 | -80.99927 | 20313 ft | 272 kts | 20° |
| 2026-05-08 00:25 | 25.12495 | -80.99076 | 19812 ft | 269 kts | 20° |
| 2026-05-08 00:26 | 25.14197 | -80.98236 | 19312 ft | 267 kts | 20° |
| 2026-05-08 00:26 | 25.15871 | -80.97412 | 18817 ft | 264 kts | 20° |
| 2026-05-08 00:26 | 25.17539 | -80.96596 | 18320 ft | 262 kts | 20° |
| 2026-05-08 00:26 | 25.19212 | -80.95776 | 17817 ft | 260 kts | 21° |
| 2026-05-08 00:27 | 25.20860 | -80.94956 | 17315 ft | 257 kts | 21° |
| 2026-05-08 00:27 | 25.22274 | -80.94256 | 16880 ft | 255 kts | 21° |
| 2026-05-08 00:27 | 25.23866 | -80.93472 | 16387 ft | 253 kts | 22° |
| 2026-05-08 00:27 | 25.25502 | -80.92654 | 15876 ft | 251 kts | 22° |
| 2026-05-08 00:28 | 25.27070 | -80.91874 | 15382 ft | 249 kts | 22° |
| 2026-05-08 00:28 | 25.28645 | -80.91094 | 14883 ft | 247 kts | 23° |
| 2026-05-08 00:28 | 25.30233 | -80.90302 | 14375 ft | 246 kts | 23° |
| 2026-05-08 00:28 | 25.31761 | -80.89544 | 13885 ft | 245 kts | 23° |
| 2026-05-08 00:29 | 25.33305 | -80.88774 | 13386 ft | 244 kts | 23° |
| 2026-05-08 00:29 | 25.34841 | -80.88004 | 12887 ft | 243 kts | 23° |
| 2026-05-08 00:29 | 25.36392 | -80.87234 | 12383 ft | 242 kts | 23° |
| 2026-05-08 00:29 | 25.37939 | -80.86491 | 11882 ft | 242 kts | 23° |
| 2026-05-08 00:30 | 25.39469 | -80.85761 | 11385 ft | 241 kts | 24° |
| 2026-05-08 00:30 | 25.41024 | -80.85028 | 10876 ft | 243 kts | 22° |
| 2026-05-08 00:30 | 25.42594 | -80.84307 | 10380 ft | 245 kts | 21° |
| 2026-05-08 00:30 | 25.44200 | -80.83614 | 9881 ft | 247 kts | 20° |
| 2026-05-08 00:31 | 25.45810 | -80.82957 | 9389 ft | 251 kts | 19° |
| 2026-05-08 00:31 | 25.47477 | -80.82296 | 8892 ft | 254 kts | 19° |
| 2026-05-08 00:31 | 25.49127 | -80.81662 | 8395 ft | 253 kts | 18° |
| 2026-05-08 00:31 | 25.50825 | -80.81015 | 7886 ft | 251 kts | 18° |
| 2026-05-08 00:32 | 25.52443 | -80.80400 | 7395 ft | 250 kts | 18° |
| 2026-05-08 00:32 | 25.54097 | -80.79772 | 6891 ft | 249 kts | 18° |
| 2026-05-08 00:32 | 25.55752 | -80.79144 | 6386 ft | 248 kts | 18° |
| 2026-05-08 00:32 | 25.57372 | -80.78532 | 5890 ft | 247 kts | 18° |
| 2026-05-08 00:33 | 25.58997 | -80.77918 | 5392 ft | 246 kts | 18° |
| 2026-05-08 00:33 | 25.60619 | -80.77308 | 4890 ft | 246 kts | 18° |
| 2026-05-08 00:33 | 25.62220 | -80.76689 | 4390 ft | 245 kts | 21° |
| 2026-05-08 00:33 | 25.63677 | -80.75763 | 4068 ft | 237 kts | 35° |
| 2026-05-08 00:34 | 25.64888 | -80.74629 | 3999 ft | 220 kts | 42° |
| 2026-05-08 00:34 | 25.65925 | -80.73441 | 3986 ft | 201 kts | 46° |
| 2026-05-08 00:34 | 25.66794 | -80.72337 | 3983 ft | 186 kts | 49° |
| 2026-05-08 00:34 | 25.67595 | -80.71266 | 3990 ft | 173 kts | 50° |
| 2026-05-08 00:35 | 25.68327 | -80.70260 | 3986 ft | 166 kts | 50° |
| 2026-05-08 00:35 | 25.69046 | -80.69265 | 4001 ft | 166 kts | 50° |
| 2026-05-08 00:35 | 25.69768 | -80.68240 | 4010 ft | 170 kts | 51° |
| 2026-05-08 00:35 | 25.70498 | -80.67199 | 4028 ft | 170 kts | 51° |
| 2026-05-08 00:36 | 25.71222 | -80.66168 | 4024 ft | 171 kts | 51° |
| 2026-05-08 00:36 | 25.71962 | -80.65113 | 4006 ft | 172 kts | 51° |
| 2026-05-08 00:36 | 25.72684 | -80.64073 | 4001 ft | 172 kts | 52° |
| 2026-05-08 00:36 | 25.73416 | -80.62995 | 4001 ft | 173 kts | 52° |
| 2026-05-08 00:37 | 25.74119 | -80.61962 | 3998 ft | 171 kts | 51° |
| 2026-05-08 00:37 | 25.74828 | -80.60944 | 3996 ft | 159 kts | 51° |
| 2026-05-08 00:37 | 25.75499 | -80.59972 | 3889 ft | 156 kts | 51° |
| 2026-05-08 00:38 | 25.76715 | -80.58117 | 3397 ft | 154 kts | 62° |
| 2026-05-08 00:38 | 25.76971 | -80.57007 | 3165 ft | 145 kts | 78° |
| 2026-05-08 00:38 | 25.77137 | -80.55903 | 2927 ft | 144 kts | 80° |
| 2026-05-08 00:38 | 25.77282 | -80.54790 | 2680 ft | 145 kts | 80° |
| 2026-05-08 00:39 | 25.77406 | -80.53694 | 2423 ft | 147 kts | 84° |
| 2026-05-08 00:39 | 25.77512 | -80.52546 | 1978 ft | 151 kts | 87° |
| 2026-05-08 00:39 | 25.77615 | -80.51423 | 1747 ft | 137 kts | 84° |
| 2026-05-08 00:39 | 25.77690 | -80.50427 | 1747 ft | 129 kts | 86° |
| 2026-05-08 00:40 | 25.77756 | -80.49401 | 1811 ft | 137 kts | 87° |
| 2026-05-08 00:40 | 25.77819 | -80.48418 | 1842 ft | 142 kts | 87° |
| 2026-05-08 00:40 | 25.77890 | -80.47314 | 1857 ft | 145 kts | 87° |
| 2026-05-08 00:40 | 25.77960 | -80.46194 | 1863 ft | 146 kts | 87° |
| 2026-05-08 00:41 | 25.78016 | -80.45073 | 1866 ft | 146 kts | 88° |
| 2026-05-08 00:41 | 25.78064 | -80.44082 | 1868 ft | 146 kts | 88° |
| 2026-05-08 00:41 | 25.78104 | -80.43255 | 1869 ft | 147 kts | 88° |
| 2026-05-08 00:41 | 25.78158 | -80.42123 | 1869 ft | 147 kts | 88° |
| 2026-05-08 00:42 | 25.78212 | -80.40985 | 1870 ft | 146 kts | 88° |
| 2026-05-08 00:42 | 25.78265 | -80.39860 | 1870 ft | 146 kts | 88° |
| 2026-05-08 00:42 | 25.78314 | -80.38725 | 1817 ft | 149 kts | 89° |
| 2026-05-08 00:42 | 25.78355 | -80.37566 | 1647 ft | 151 kts | 89° |
| 2026-05-08 00:43 | 25.78414 | -80.36405 | 1407 ft | 152 kts | 87° |
| 2026-05-08 00:43 | 25.78460 | -80.35210 | 1030 ft | 154 kts | 89° |
| 2026-05-08 00:43 | 25.78513 | -80.34067 | 769 ft | 144 kts | 84° |
| 2026-05-08 00:43 | 25.78556 | -80.32980 | 513 ft | 143 kts | 88° |
| 2026-05-08 00:44 | 25.78588 | -80.31895 | 297 ft | 137 kts | 87° |
| 2026-05-08 00:44 | 25.78623 | -80.30863 | 133 ft | 130 kts | 85° |
| 2026-05-08 00:44 | 25.78669 | -80.29915 | 20 ft | 110 kts | 87° |
| 2026-05-08 00:44 | 25.78714 | -80.29210 | 18 ft | 74 kts | 89° |
| 2026-05-08 00:45 | 25.78725 | -80.28809 | 18 ft | 28 kts | 75° |